Time;durP1;ratioP1;P1;durP2;ratioP2;P2;SDS_P1;SDS_P2;PMS_P1;PMS_P2;Temp;Humidity;BMP_temperature;BMP_pressure;BME280_temperature;BME280_humidity;BME280_pressure;Samples;Min_cycle;Max_cycle;Signal;HPM_P1;HPM_P2
2023/03/01 00:01:54;;;;;;;5.05;3.97;;;15.30;31.90;;;;;;5086856;28;47311;-71
2023/03/01 00:04:21;;;;;;;7.45;4.53;;;15.40;31.80;;;;;;5087022;28;45281;-71
2023/03/01 00:06:48;;;;;;;5.45;3.78;;;15.40;31.70;;;;;;5087232;28;45394;-71
2023/03/01 00:09:15;;;;;;;4.90;3.90;;;15.50;31.70;;;;;;5086473;27;45336;-71
2023/03/01 00:11:43;;;;;;;6.35;4.32;;;15.50;31.70;;;;;;5086640;28;46330;-72
2023/03/01 00:14:10;;;;;;;5.88;4.43;;;15.50;31.70;;;;;;5086318;28;45248;-71
2023/03/01 00:16:39;;;;;;;5.28;4.10;;;15.50;32.20;;;;;;5086868;28;45311;-71
2023/03/01 00:19:06;;;;;;;7.35;4.55;;;15.50;31.50;;;;;;5086922;28;45430;-71
2023/03/01 00:21:33;;;;;;;6.57;4.32;;;15.50;31.50;;;;;;5086440;28;46883;-70
2023/03/01 00:24:00;;;;;;;5.72;4.03;;;15.50;31.50;;;;;;5086636;28;45182;-71
2023/03/01 00:26:27;;;;;;;5.05;4.18;;;15.50;31.50;;;;;;5086603;28;45404;-71
2023/03/01 00:28:56;;;;;;;5.18;4.07;;;15.50;31.40;;;;;;5086600;28;45385;-71
2023/03/01 00:31:23;;;;;;;6.93;4.55;;;15.50;31.40;;;;;;5086288;28;46623;-71
2023/03/01 00:33:53;;;;;;;5.40;3.92;;;15.60;31.50;;;;;;5086288;28;45326;-71
2023/03/01 00:36:20;;;;;;;6.13;4.18;;;15.60;31.40;;;;;;5086573;28;45389;-71
2023/03/01 00:38:46;;;;;;;5.65;4.05;;;15.60;31.40;;;;;;5086546;28;45494;-71
2023/03/01 00:41:15;;;;;;;4.55;3.92;;;15.60;31.30;;;;;;5086159;28;45457;-71
2023/03/01 00:43:41;;;;;;;4.20;3.80;;;15.50;31.30;;;;;;5086106;28;45304;-71
2023/03/01 00:46:10;;;;;;;4.55;3.53;;;15.50;31.40;;;;;;5086330;28;45279;-71
2023/03/01 00:48:37;;;;;;;4.50;3.95;;;15.50;31.50;;;;;;5086282;28;45487;-71
2023/03/01 00:51:08;;;;;;;5.22;3.75;;;15.50;31.60;;;;;;5086015;28;45332;-71
2023/03/01 00:53:35;;;;;;;6.18;3.60;;;15.40;31.60;;;;;;5086089;28;45304;-71
2023/03/01 00:56:02;;;;;;;7.43;4.15;;;15.40;31.70;;;;;;5086226;28;45312;-71
2023/03/01 00:58:28;;;;;;;5.22;3.75;;;15.30;31.80;;;;;;5086169;28;45399;-71
2023/03/01 01:00:55;;;;;;;4.95;3.88;;;15.30;31.90;;;;;;5085781;28;45231;-71
2023/03/01 01:03:24;;;;;;;5.47;4.07;;;15.20;31.80;;;;;;5086148;28;45305;-71
2023/03/01 01:05:51;;;;;;;5.30;3.83;;;15.20;31.90;;;;;;5085992;28;45332;-71
2023/03/01 01:08:18;;;;;;;5.95;3.60;;;15.20;32.00;;;;;;5086034;28;45372;-71
2023/03/01 01:10:45;;;;;;;4.82;3.50;;;15.30;32.00;;;;;;5085750;28;46302;-71
2023/03/01 01:13:12;;;;;;;4.30;3.72;;;15.30;31.90;;;;;;5085622;28;45305;-71
2023/03/01 01:15:39;;;;;;;4.97;4.03;;;15.30;31.80;;;;;;5085605;28;45497;-71
2023/03/01 01:18:06;;;;;;;5.82;3.60;;;15.30;31.80;;;;;;5086186;28;45349;-71
2023/03/01 01:20:34;;;;;;;4.65;3.55;;;15.30;31.70;;;;;;5085582;27;45380;-71
2023/03/01 01:23:01;;;;;;;6.25;3.58;;;15.40;31.70;;;;;;5088864;28;45325;-71
2023/03/01 01:25:27;;;;;;;4.03;3.40;;;15.40;31.50;;;;;;5089364;28;45266;-71
2023/03/01 01:27:54;;;;;;;6.05;3.60;;;15.40;31.50;;;;;;5089711;28;45377;-71
2023/03/01 01:30:21;;;;;;;5.10;3.80;;;15.50;31.40;;;;;;5089050;28;48348;-71
2023/03/01 01:32:48;;;;;;;4.40;3.50;;;15.50;31.30;;;;;;5089138;28;45427;-71
2023/03/01 01:35:15;;;;;;;4.70;3.50;;;15.60;31.20;;;;;;5089116;28;45213;-71
2023/03/01 01:37:43;;;;;;;4.68;3.70;;;15.60;31.10;;;;;;5089648;28;45507;-71
2023/03/01 01:40:11;;;;;;;3.92;3.58;;;15.70;31.10;;;;;;5089029;28;45366;-71
2023/03/01 01:42:38;;;;;;;4.07;3.58;;;15.70;31.10;;;;;;5088780;28;45443;-71
2023/03/01 01:45:27;;;;;;;5.32;3.78;;;15.60;31.00;;;;;;5089321;28;45285;-71
2023/03/01 01:47:55;;;;;;;4.70;3.70;;;15.60;31.00;;;;;;5089197;28;45491;-71
2023/03/01 01:50:22;;;;;;;4.57;3.45;;;15.60;31.10;;;;;;5088861;28;45313;-71
2023/03/01 01:52:51;;;;;;;4.10;3.33;;;15.50;31.20;;;;;;5088761;28;45324;-71
2023/03/01 01:55:20;;;;;;;5.50;3.95;;;15.50;31.30;;;;;;5089010;28;45400;-71
2023/03/01 01:57:49;;;;;;;4.05;3.65;;;15.40;31.30;;;;;;5089144;28;45234;-71
2023/03/01 02:00:21;;;;;;;5.15;3.70;;;15.40;31.40;;;;;;5088669;28;46297;-71
2023/03/01 02:02:51;;;;;;;3.88;3.40;;;15.40;31.50;;;;;;5088667;28;45295;-71
2023/03/01 02:05:20;;;;;;;4.50;3.67;;;15.30;31.60;;;;;;5088885;28;45250;-71
2023/03/01 02:07:47;;;;;;;4.88;3.70;;;15.20;31.60;;;;;;5088949;28;45356;-71
2023/03/01 02:10:15;;;;;;;3.95;3.25;;;15.20;31.70;;;;;;5088503;28;45355;-71
2023/03/01 02:12:42;;;;;;;4.15;3.40;;;15.20;31.80;;;;;;5088443;28;45305;-71
2023/03/01 02:15:10;;;;;;;5.45;3.75;;;15.20;31.80;;;;;;5088328;28;45427;-70
2023/03/01 02:17:37;;;;;;;4.25;3.65;;;15.10;31.80;;;;;;5088867;28;45453;-71
2023/03/01 02:20:09;;;;;;;5.82;3.70;;;15.20;31.80;;;;;;5088205;28;45423;-71
2023/03/01 02:22:36;;;;;;;5.28;3.70;;;15.20;31.80;;;;;;5088256;28;45329;-71
2023/03/01 02:25:09;;;;;;;5.00;3.92;;;15.20;31.70;;;;;;5088738;28;45426;-71
2023/03/01 02:27:41;;;;;;;4.65;3.75;;;15.20;31.60;;;;;;5088603;28;45598;-71
2023/03/01 02:30:12;;;;;;;4.00;3.63;;;15.30;31.90;;;;;;5088083;28;46394;-71
2023/03/01 02:32:38;;;;;;;6.18;3.78;;;15.30;31.50;;;;;;5087656;27;45444;-70
2023/03/01 02:35:07;;;;;;;5.00;3.88;;;15.30;31.40;;;;;;5088400;28;45244;-71
2023/03/01 02:37:34;;;;;;;4.78;3.80;;;15.40;31.40;;;;;;5088603;28;45304;-71
2023/03/01 02:40:03;;;;;;;4.05;3.65;;;15.40;31.30;;;;;;5087966;28;46163;-71
2023/03/01 02:42:32;;;;;;;4.28;3.85;;;15.40;31.20;;;;;;5088011;28;45298;-70
2023/03/01 02:44:59;;;;;;;5.85;4.07;;;15.50;31.10;;;;;;5088190;28;45335;-71
2023/03/01 02:47:27;;;;;;;4.50;3.88;;;15.50;31.10;;;;;;5088403;28;45425;-70
2023/03/01 02:49:54;;;;;;;5.15;3.90;;;15.50;31.00;;;;;;5087673;28;48306;-71
2023/03/01 02:52:29;;;;;;;6.22;3.97;;;15.50;31.00;;;;;;5087910;28;45325;-71
2023/03/01 02:54:59;;;;;;;6.22;4.25;;;15.50;30.90;;;;;;5088109;28;45207;-71
2023/03/01 02:57:27;;;;;;;6.70;4.22;;;15.60;31.00;;;;;;5088180;28;45497;-71
2023/03/01 02:59:54;;;;;;;7.97;4.10;;;15.50;31.00;;;;;;5087702;28;46728;-71
2023/03/01 03:02:35;;;;;;;5.70;3.90;;;15.50;31.00;;;;;;5087844;28;45274;-70
2023/03/01 03:05:05;;;;;;;4.47;3.75;;;15.40;31.00;;;;;;5087876;28;45462;-70
2023/03/01 03:07:33;;;;;;;7.82;4.00;;;15.40;31.10;;;;;;5088148;28;45111;-70
2023/03/01 03:10:01;;;;;;;4.30;3.90;;;15.40;31.10;;;;;;5087510;28;45411;-71
2023/03/01 03:12:27;;;;;;;6.68;3.75;;;15.40;31.20;;;;;;5087448;28;45375;-71
2023/03/01 03:14:54;;;;;;;4.72;4.22;;;15.30;31.20;;;;;;5087413;28;45311;-71
2023/03/01 03:17:21;;;;;;;6.72;4.07;;;15.30;31.20;;;;;;5087932;28;45316;-71
2023/03/01 03:19:48;;;;;;;5.80;4.25;;;15.20;31.30;;;;;;5087451;28;47552;-71
2023/03/01 03:22:16;;;;;;;4.85;4.18;;;15.20;31.40;;;;;;5087442;28;45314;-70
2023/03/01 03:24:43;;;;;;;3.90;3.35;;;15.20;31.40;;;;;;5087659;28;45354;-71
2023/03/01 03:27:10;;;;;;;6.43;4.47;;;15.20;31.50;;;;;;5087756;28;45504;-71
2023/03/01 03:29:37;;;;;;;5.30;4.35;;;15.10;31.50;;;;;;5087289;28;45470;-71
2023/03/01 03:32:04;;;;;;;5.30;3.80;;;15.10;31.60;;;;;;5087245;28;45256;-71
2023/03/01 03:34:31;;;;;;;5.80;3.95;;;15.00;31.60;;;;;;5087447;28;45434;-71
2023/03/01 03:36:59;;;;;;;4.30;3.90;;;15.10;31.70;;;;;;5087477;28;45308;-71
2023/03/01 03:39:27;;;;;;;7.10;4.43;;;15.10;32.30;;;;;;5087093;28;48841;-71
2023/03/01 03:41:54;;;;;;;6.47;4.93;;;15.10;31.60;;;;;;5087133;28;45317;-71
2023/03/01 03:44:21;;;;;;;6.82;4.38;;;15.10;31.60;;;;;;5086253;28;45404;-70
2023/03/01 03:46:48;;;;;;;4.90;3.75;;;15.20;31.60;;;;;;5087352;28;45403;-71
2023/03/01 03:49:15;;;;;;;6.85;4.47;;;15.20;31.40;;;;;;5086915;28;45392;-71
2023/03/01 03:51:41;;;;;;;5.78;4.43;;;15.30;31.20;;;;;;5086878;28;45315;-71
2023/03/01 03:54:08;;;;;;;4.63;4.13;;;15.40;31.10;;;;;;5087065;28;45253;-70
2023/03/01 03:56:37;;;;;;;4.78;4.20;;;15.40;31.00;;;;;;5087244;28;45270;-70
2023/03/01 03:59:03;;;;;;;7.00;4.82;;;15.50;30.80;;;;;;5086772;28;46439;-71
2023/03/01 04:01:32;;;;;;;5.07;4.07;;;15.50;30.80;;;;;;5086884;28;45292;-70
2023/03/01 04:04:03;;;;;;;5.13;4.28;;;15.50;30.70;;;;;;5086855;28;45305;-70
2023/03/01 04:06:30;;;;;;;5.97;4.35;;;15.60;30.70;;;;;;5087047;28;45561;-71
2023/03/01 04:09:02;;;;;;;7.30;4.93;;;15.60;30.70;;;;;;5086565;28;46417;-71
2023/03/01 04:11:29;;;;;;;5.82;4.20;;;15.60;30.80;;;;;;5086656;28;45309;-71
2023/03/01 04:13:58;;;;;;;5.55;4.28;;;15.50;30.70;;;;;;5086546;28;45305;-71
2023/03/01 04:16:25;;;;;;;4.68;3.90;;;15.50;30.70;;;;;;5086913;28;45288;-70
2023/03/01 04:18:52;;;;;;;5.25;4.15;;;15.50;31.50;;;;;;5086555;28;46701;-71
2023/03/01 04:21:20;;;;;;;6.40;4.75;;;15.50;30.90;;;;;;5086709;28;45454;-70
2023/03/01 04:23:46;;;;;;;4.72;3.90;;;15.40;31.00;;;;;;5086664;28;45224;-70
2023/03/01 04:26:13;;;;;;;4.68;4.18;;;15.40;31.00;;;;;;5086793;28;45186;-70
2023/03/01 04:28:42;;;;;;;6.82;4.53;;;15.40;31.10;;;;;;5086324;28;45441;-71
2023/03/01 04:31:16;;;;;;;5.65;4.43;;;15.30;31.20;;;;;;5086186;28;45371;-70
2023/03/01 04:33:43;;;;;;;5.88;4.22;;;15.30;31.30;;;;;;5086484;28;45474;-71
2023/03/01 04:36:10;;;;;;;4.30;3.88;;;15.30;31.40;;;;;;5086649;28;45404;-71
2023/03/01 04:38:37;;;;;;;6.07;4.47;;;15.20;31.40;;;;;;5086095;28;46431;-71
2023/03/01 04:41:05;;;;;;;4.55;4.10;;;15.20;31.50;;;;;;5086190;28;45323;-71
2023/03/01 04:43:33;;;;;;;4.40;3.72;;;15.10;31.50;;;;;;5086298;28;45366;-71
2023/03/01 04:46:03;;;;;;;4.95;3.95;;;15.10;31.60;;;;;;5086857;28;45470;-71
2023/03/01 04:48:32;;;;;;;7.38;4.22;;;15.10;32.20;;;;;;5086117;28;47289;-71
2023/03/01 04:50:59;;;;;;;5.22;4.30;;;15.10;31.70;;;;;;5086010;28;45412;-71
2023/03/01 04:53:26;;;;;;;5.20;4.00;;;15.10;31.80;;;;;;5086259;28;45317;-71
2023/03/01 04:55:53;;;;;;;7.95;4.90;;;15.10;31.80;;;;;;5086132;27;45348;-71
2023/03/01 04:58:20;;;;;;;7.13;4.38;;;15.10;31.70;;;;;;5086087;28;47509;-71
2023/03/01 05:00:47;;;;;;;4.55;4.05;;;15.10;31.70;;;;;;5085943;28;45522;-71
2023/03/01 05:03:17;;;;;;;5.85;4.15;;;15.20;31.70;;;;;;5085996;28;45426;-71
2023/03/01 05:05:46;;;;;;;4.30;3.90;;;15.20;31.60;;;;;;5086247;28;45543;-70
2023/03/01 05:08:17;;;;;;;4.95;4.35;;;15.30;31.60;;;;;;5085783;28;46409;-71
2023/03/01 05:10:44;;;;;;;6.22;4.30;;;15.30;31.60;;;;;;5085825;28;45320;-71
2023/03/01 05:13:11;;;;;;;4.60;3.95;;;15.30;31.50;;;;;;5085781;28;45269;-71
2023/03/01 05:15:38;;;;;;;7.38;4.43;;;15.40;31.50;;;;;;5085803;28;45466;-71
2023/03/01 05:18:11;;;;;;;4.97;4.00;;;15.40;31.30;;;;;;5085768;28;46397;-71
2023/03/01 05:20:37;;;;;;;7.63;4.05;;;15.40;31.20;;;;;;5085680;28;45386;-71
2023/03/01 05:23:06;;;;;;;5.72;4.10;;;15.50;31.20;;;;;;5085634;28;45628;-71
2023/03/01 05:25:33;;;;;;;5.75;4.07;;;15.50;31.10;;;;;;5086082;28;45197;-71
2023/03/01 05:28:03;;;;;;;4.95;4.43;;;15.50;31.20;;;;;;5085556;28;45327;-71
2023/03/01 05:30:31;;;;;;;4.72;4.15;;;15.50;31.20;;;;;;5085477;28;45325;-71
2023/03/01 05:32:58;;;;;;;5.47;3.80;;;15.50;31.20;;;;;;5085574;28;45254;-71
2023/03/01 05:35:25;;;;;;;4.85;4.00;;;15.50;31.30;;;;;;5085869;28;45474;-71
2023/03/01 05:37:52;;;;;;;4.47;3.78;;;15.40;31.30;;;;;;5085392;28;46309;-71
2023/03/01 05:40:21;;;;;;;4.90;4.00;;;15.40;31.30;;;;;;5085499;28;45355;-71
2023/03/01 05:42:48;;;;;;;4.63;4.22;;;15.40;32.10;;;;;;5085503;28;45354;-71
2023/03/01 05:45:15;;;;;;;5.30;4.00;;;15.30;31.50;;;;;;5085839;28;45242;-71
2023/03/01 05:47:43;;;;;;;4.70;3.95;;;15.30;31.60;;;;;;5085521;28;45479;-71
2023/03/01 05:50:12;;;;;;;4.45;3.75;;;15.20;31.60;;;;;;5085522;28;45316;-70
2023/03/01 05:52:39;;;;;;;5.85;4.43;;;15.30;32.30;;;;;;5085331;28;45334;-71
2023/03/01 05:55:07;;;;;;;5.53;4.20;;;15.20;31.80;;;;;;5085672;28;45163;-71
2023/03/01 05:57:35;;;;;;;5.43;4.25;;;15.10;31.80;;;;;;5085301;28;45309;-71
2023/03/01 06:00:02;;;;;;;4.97;4.00;;;15.10;31.90;;;;;;5085099;28;45373;-71
2023/03/01 06:02:30;;;;;;;6.18;4.25;;;15.10;32.00;;;;;;5085157;28;45304;-71
2023/03/01 06:04:56;;;;;;;4.50;3.80;;;15.10;32.00;;;;;;5085594;28;45316;-71
2023/03/01 06:07:23;;;;;;;4.75;4.10;;;15.10;32.70;;;;;;5086016;27;45304;-71
2023/03/01 06:09:53;;;;;;;5.40;4.10;;;15.10;32.00;;;;;;5088621;28;45253;-71
2023/03/01 06:12:20;;;;;;;6.15;4.00;;;15.10;32.00;;;;;;5088691;28;45324;-71
2023/03/01 06:14:48;;;;;;;4.82;3.95;;;15.10;31.90;;;;;;5088757;28;45364;-71
2023/03/01 06:17:15;;;;;;;4.75;4.10;;;15.20;31.90;;;;;;5088544;28;46680;-71
2023/03/01 06:19:42;;;;;;;5.72;3.42;;;15.20;31.80;;;;;;5088553;28;45428;-71
2023/03/01 06:22:09;;;;;;;5.30;3.90;;;15.30;32.50;;;;;;5088515;28;45328;-71
2023/03/01 06:24:35;;;;;;;4.57;4.10;;;15.30;31.80;;;;;;5088756;28;45184;-71
2023/03/01 06:27:02;;;;;;;4.38;3.75;;;15.30;31.80;;;;;;5088398;28;47295;-71
2023/03/01 06:29:29;;;;;;;4.55;3.80;;;15.30;31.80;;;;;;5088293;28;45359;-71
2023/03/01 06:31:57;;;;;;;4.97;3.97;;;15.30;31.70;;;;;;5088383;28;45308;-71
2023/03/01 06:34:24;;;;;;;5.95;4.18;;;15.30;31.70;;;;;;5088696;28;45404;-71
2023/03/01 06:36:51;;;;;;;5.57;4.75;;;15.40;31.80;;;;;;5088202;28;45489;-71
2023/03/01 06:39:18;;;;;;;4.82;4.18;;;15.40;31.70;;;;;;5088289;28;45349;-71
2023/03/01 06:41:45;;;;;;;6.35;4.40;;;15.30;31.70;;;;;;5088308;28;45510;-71
2023/03/01 06:44:12;;;;;;;4.93;4.10;;;15.40;31.70;;;;;;5088374;28;45371;-71
2023/03/01 06:46:39;;;;;;;5.60;4.50;;;15.40;31.70;;;;;;5088127;28;46329;-71
2023/03/01 06:49:09;;;;;;;4.85;4.25;;;15.40;31.70;;;;;;5088154;28;45312;-71
2023/03/01 06:51:36;;;;;;;5.07;4.55;;;15.40;31.70;;;;;;5088253;28;45292;-71
2023/03/01 06:54:03;;;;;;;5.60;4.32;;;15.40;31.70;;;;;;5088181;28;45375;-71
2023/03/01 06:56:30;;;;;;;5.18;4.32;;;15.40;31.70;;;;;;5087941;28;46275;-71
2023/03/01 06:58:57;;;;;;;5.40;4.18;;;15.40;31.70;;;;;;5088053;28;45251;-71
2023/03/01 07:01:24;;;;;;;6.05;4.18;;;15.40;32.40;;;;;;5085458;28;45419;-71
2023/03/01 07:03:50;;;;;;;7.00;4.35;;;15.40;31.80;;;;;;5088116;28;45309;-71
2023/03/01 07:06:19;;;;;;;4.47;3.97;;;15.30;31.80;;;;;;5087772;28;45544;-71
2023/03/01 07:08:46;;;;;;;5.60;4.43;;;15.30;31.90;;;;;;5087820;28;45317;-71
2023/03/01 07:11:13;;;;;;;5.65;4.50;;;15.30;31.90;;;;;;5087809;28;45387;-71
2023/03/01 07:13:39;;;;;;;5.57;4.38;;;15.30;32.10;;;;;;5087927;28;45354;-71
2023/03/01 07:16:07;;;;;;;4.78;3.97;;;15.20;32.10;;;;;;5087606;28;45304;-71
2023/03/01 07:18:34;;;;;;;7.70;4.28;;;15.20;32.20;;;;;;5087684;27;45373;-71
2023/03/01 07:21:05;;;;;;;4.90;4.13;;;15.20;32.30;;;;;;5088043;28;45265;-71
2023/03/01 07:23:33;;;;;;;5.68;3.90;;;15.10;32.40;;;;;;5087757;28;45300;-71
2023/03/01 07:26:00;;;;;;;6.95;4.28;;;15.10;32.40;;;;;;5087427;28;46407;-71
2023/03/01 07:28:27;;;;;;;5.50;4.35;;;15.10;32.50;;;;;;5087515;28;45209;-71
2023/03/01 07:30:54;;;;;;;5.78;4.07;;;15.10;32.50;;;;;;5087476;28;45420;-71
2023/03/01 07:33:21;;;;;;;5.70;4.15;;;15.10;32.50;;;;;;5087651;28;45380;-71
2023/03/01 07:35:48;;;;;;;5.78;4.53;;;15.20;32.40;;;;;;5087376;28;46682;-71
2023/03/01 07:38:15;;;;;;;6.47;4.55;;;15.20;32.40;;;;;;5087434;28;45288;-71
2023/03/01 07:40:43;;;;;;;6.30;4.35;;;15.20;32.30;;;;;;5087533;28;45296;-71
2023/03/01 07:43:10;;;;;;;7.70;4.68;;;15.20;32.30;;;;;;5087562;28;45419;-71
2023/03/01 07:45:36;;;;;;;4.90;4.15;;;15.20;32.30;;;;;;5087178;28;46426;-71
2023/03/01 07:48:04;;;;;;;5.65;3.95;;;15.30;32.30;;;;;;5087183;28;45308;-71
2023/03/01 07:50:30;;;;;;;4.63;4.15;;;15.30;32.20;;;;;;5087445;28;45127;-71
2023/03/01 07:52:57;;;;;;;6.13;4.07;;;15.30;32.20;;;;;;5087486;28;45440;-71
2023/03/01 07:55:24;;;;;;;5.65;4.20;;;15.30;32.20;;;;;;5086926;28;47233;-71
2023/03/01 07:57:52;;;;;;;6.50;4.47;;;15.40;32.30;;;;;;5087038;28;45355;-71
2023/03/01 08:00:20;;;;;;;7.10;4.38;;;15.40;32.20;;;;;;5087335;28;45296;-71
2023/03/01 08:02:47;;;;;;;7.57;4.78;;;15.40;32.20;;;;;;5087230;28;45258;-70
2023/03/01 08:05:13;;;;;;;5.28;4.55;;;15.40;32.20;;;;;;5086774;28;45312;-71
2023/03/01 08:07:40;;;;;;;6.13;4.45;;;15.50;32.20;;;;;;5087041;28;45423;-71
2023/03/01 08:10:08;;;;;;;7.65;4.70;;;15.50;32.20;;;;;;5087028;28;45352;-71
2023/03/01 08:12:35;;;;;;;7.45;4.75;;;15.50;32.10;;;;;;5087032;28;45506;-71
2023/03/01 08:15:03;;;;;;;6.40;4.90;;;15.50;32.20;;;;;;5086471;28;46337;-71
2023/03/01 08:17:30;;;;;;;6.50;5.40;;;15.40;32.20;;;;;;5086706;28;45381;-71
2023/03/01 08:19:57;;;;;;;5.88;4.57;;;15.40;32.30;;;;;;5086993;28;45436;-71
2023/03/01 08:22:24;;;;;;;7.53;4.88;;;15.40;32.40;;;;;;5086844;28;45405;-71
2023/03/01 08:24:51;;;;;;;7.10;4.40;;;15.30;32.40;;;;;;5086513;28;46397;-71
2023/03/01 08:27:18;;;;;;;8.82;4.68;;;15.30;32.50;;;;;;5086632;28;45183;-71
2023/03/01 08:29:45;;;;;;;6.85;4.75;;;15.30;32.60;;;;;;5086358;28;45478;-71
2023/03/01 08:32:13;;;;;;;7.93;4.60;;;15.30;33.30;;;;;;5086572;28;45410;-71
2023/03/01 08:34:39;;;;;;;8.57;4.72;;;15.20;32.70;;;;;;5086436;28;46400;-71
2023/03/01 08:37:06;;;;;;;8.20;4.82;;;15.20;32.90;;;;;;5086437;28;45161;-71
2023/03/01 08:39:33;;;;;;;7.00;4.65;;;15.20;32.90;;;;;;5086727;28;45267;-71
2023/03/01 08:42:00;;;;;;;6.80;4.95;;;15.20;33.00;;;;;;5087063;28;45481;-71
2023/03/01 08:44:27;;;;;;;6.32;4.85;;;15.10;33.70;;;;;;5086593;28;46543;-71
2023/03/01 08:46:55;;;;;;;9.05;5.47;;;15.10;33.10;;;;;;5086941;28;45448;-71
2023/03/01 08:49:24;;;;;;;9.95;4.60;;;15.20;33.20;;;;;;5087177;28;45313;-72
2023/03/01 08:51:51;;;;;;;8.55;5.60;;;15.20;33.10;;;;;;5086787;28;45532;-72
2023/03/01 08:54:19;;;;;;;8.07;5.15;;;15.20;33.10;;;;;;5086384;28;45479;-71
2023/03/01 08:56:46;;;;;;;9.02;5.13;;;15.20;33.00;;;;;;5086341;28;45127;-71
2023/03/01 08:59:13;;;;;;;5.57;4.53;;;15.30;33.60;;;;;;5086567;28;45245;-71
2023/03/01 09:01:42;;;;;;;7.38;4.75;;;15.30;33.00;;;;;;5086521;28;45355;-71
2023/03/01 09:04:09;;;;;;;8.13;5.22;;;15.40;32.90;;;;;;5086149;28;45483;-71
2023/03/01 09:06:38;;;;;;;6.30;4.80;;;15.40;32.90;;;;;;5086221;28;45172;-71
2023/03/01 09:09:05;;;;;;;7.90;4.90;;;15.50;32.90;;;;;;5086207;28;45300;-71
2023/03/01 09:11:33;;;;;;;6.22;4.80;;;15.50;32.90;;;;;;5085354;28;45309;-71
2023/03/01 09:13:59;;;;;;;7.75;4.97;;;15.50;32.90;;;;;;5085582;28;46649;-71
2023/03/01 09:16:26;;;;;;;9.77;5.28;;;15.50;32.80;;;;;;5085925;28;45185;-71
2023/03/01 09:18:54;;;;;;;11.50;5.88;;;15.50;32.70;;;;;;5085680;28;45314;-72
2023/03/01 09:21:22;;;;;;;9.73;5.07;;;15.60;32.80;;;;;;5086443;28;45407;-71
2023/03/01 09:23:50;;;;;;;11.65;6.47;;;15.60;32.80;;;;;;5085906;28;45503;-71
2023/03/01 09:26:21;;;;;;;12.45;5.82;;;15.60;32.90;;;;;;5085927;28;45310;-71
2023/03/01 09:28:48;;;;;;;8.55;5.20;;;15.50;32.90;;;;;;5085950;28;45294;-71
2023/03/01 09:31:15;;;;;;;12.07;5.93;;;15.50;33.00;;;;;;5084074;28;45295;-68
2023/03/01 09:33:42;;;;;;;10.43;5.60;;;15.50;33.10;;;;;;5085583;28;46466;-68
2023/03/01 09:36:11;;;;;;;9.20;5.70;;;15.50;33.20;;;;;;5085542;28;45282;-67
2023/03/01 09:38:38;;;;;;;8.90;5.35;;;15.50;33.30;;;;;;5085650;28;45345;-67
2023/03/01 09:41:10;;;;;;;8.45;5.20;;;15.40;33.30;;;;;;5082409;27;45356;-68
2023/03/01 09:43:41;;;;;;;9.55;5.25;;;15.40;33.40;;;;;;5073169;28;45390;-67
2023/03/01 09:46:10;;;;;;;12.68;5.38;;;15.40;33.60;;;;;;5070700;28;45295;-68
2023/03/01 09:48:39;;;;;;;13.15;5.32;;;15.40;33.70;;;;;;5087211;28;45273;-67
2023/03/01 09:51:07;;;;;;;11.73;5.22;;;15.40;34.40;;;;;;5080570;28;45199;-67
2023/03/01 09:53:35;;;;;;;6.90;4.63;;;15.40;33.80;;;;;;5068481;28;46429;-68
2023/03/01 09:56:03;;;;;;;9.35;5.28;;;15.30;33.90;;;;;;5084010;28;45440;-68
2023/03/01 09:58:39;;;;;;;8.90;5.28;;;15.30;33.90;;;;;;5089012;28;45369;-68
2023/03/01 10:01:19;;;;;;;6.70;4.50;;;15.30;33.90;;;;;;5089234;28;45512;-67
2023/03/01 10:03:59;;;;;;;7.15;4.90;;;15.30;34.00;;;;;;5088107;28;46507;-67
2023/03/01 10:06:26;;;;;;;11.05;4.95;;;15.20;34.00;;;;;;5083393;28;45260;-67
2023/03/01 10:08:55;;;;;;;7.20;5.00;;;15.20;34.60;;;;;;5068547;28;45318;-67
2023/03/01 10:11:23;;;;;;;8.50;5.22;;;15.20;34.10;;;;;;5080815;28;45476;-68
2023/03/01 10:13:56;;;;;;;9.70;5.45;;;15.30;34.20;;;;;;5088153;28;46381;-68
2023/03/01 10:16:25;;;;;;;6.43;5.00;;;15.30;34.10;;;;;;5086055;28;45455;-67
2023/03/01 10:18:54;;;;;;;8.57;5.00;;;15.30;34.00;;;;;;5088522;28;45193;-67
2023/03/01 10:21:21;;;;;;;6.82;4.50;;;15.40;34.00;;;;;;5088732;28;45345;-68
2023/03/01 10:23:48;;;;;;;9.00;5.13;;;15.40;34.00;;;;;;5073827;28;46677;-67
2023/03/01 10:26:40;;;;;;;8.80;4.68;;;15.50;33.90;;;;;;5068227;28;45396;-67
2023/03/01 10:29:09;;;;;;;5.82;4.25;;;15.50;33.80;;;;;;5071111;28;45295;-67
2023/03/01 10:31:40;;;;;;;9.00;4.72;;;15.50;33.70;;;;;;5088680;28;45254;-67
2023/03/01 10:34:15;;;;;;;7.57;4.53;;;15.60;33.80;;;;;;5088261;28;45497;-67
2023/03/01 10:36:42;;;;;;;5.95;4.93;;;15.60;33.80;;;;;;5088271;28;45360;-67
2023/03/01 10:39:14;;;;;;;6.07;4.53;;;15.60;33.80;;;;;;5088339;28;45330;-68
2023/03/01 10:41:56;;;;;;;7.15;4.82;;;15.70;33.80;;;;;;5085818;28;45367;-68
2023/03/01 10:44:51;;;;;;;6.18;4.45;;;15.70;33.80;;;;;;5087620;28;45252;-67
2023/03/01 10:47:21;;;;;;;7.07;4.60;;;15.70;33.90;;;;;;5062929;28;45503;-67
2023/03/01 10:49:58;;;;;;;8.07;4.72;;;15.60;33.80;;;;;;5086483;28;45317;-67
2023/03/01 10:52:27;;;;;;;7.00;4.35;;;15.60;33.80;;;;;;5076148;27;45764;-66
2023/03/01 10:54:55;;;;;;;9.02;4.78;;;15.60;33.90;;;;;;5087471;28;45312;-68
2023/03/01 10:57:41;;;;;;;6.70;4.45;;;15.60;34.60;;;;;;5078463;27;45589;-68
2023/03/01 11:00:24;;;;;;;7.72;4.70;;;15.60;34.00;;;;;;5080306;28;45466;-68
2023/03/01 11:02:52;;;;;;;7.45;5.05;;;15.60;34.20;;;;;;5088363;28;45378;-67
2023/03/01 11:05:24;;;;;;;8.00;4.65;;;15.60;34.30;;;;;;5087820;28;48208;-67
2023/03/01 11:07:52;;;;;;;8.45;4.85;;;15.60;34.30;;;;;;5087890;28;45392;-67
2023/03/01 11:10:21;;;;;;;6.03;4.30;;;15.60;34.40;;;;;;5088022;28;45360;-67
2023/03/01 11:12:47;;;;;;;5.75;4.60;;;15.60;34.40;;;;;;5088056;28;45249;-67
2023/03/01 11:15:24;;;;;;;6.35;4.70;;;15.60;34.40;;;;;;5087433;28;45324;-68
2023/03/01 11:17:51;;;;;;;5.18;4.18;;;15.50;34.40;;;;;;5087831;28;45269;-68
2023/03/01 11:20:21;;;;;;;5.05;4.50;;;15.60;34.50;;;;;;5087923;28;45358;-67
2023/03/01 11:22:49;;;;;;;5.38;4.15;;;15.60;34.50;;;;;;5087920;28;45187;-67
2023/03/01 11:25:16;;;;;;;5.80;4.47;;;15.50;34.40;;;;;;5082545;28;46566;-65
2023/03/01 11:27:45;;;;;;;6.13;4.28;;;15.50;34.40;;;;;;5083543;28;45495;-67
2023/03/01 11:30:16;;;;;;;5.55;4.60;;;15.60;34.50;;;;;;5076228;28;45202;-68
2023/03/01 11:32:47;;;;;;;6.35;4.20;;;15.60;34.40;;;;;;5087535;28;45462;-67
2023/03/01 11:35:16;;;;;;;6.00;4.18;;;15.70;34.40;;;;;;5081775;28;45490;-66
2023/03/01 11:37:59;;;;;;;6.50;4.72;;;15.80;34.40;;;;;;5085713;27;45473;-67
2023/03/01 11:40:28;;;;;;;6.28;4.05;;;15.80;34.30;;;;;;5085835;28;45387;-67
2023/03/01 11:43:06;;;;;;;5.22;3.78;;;15.90;34.30;;;;;;5081812;27;45859;-68
2023/03/01 11:45:39;;;;;;;5.90;4.25;;;16.00;34.80;;;;;;5082589;28;45487;-68
2023/03/01 11:48:23;;;;;;;5.55;3.92;;;16.00;34.20;;;;;;5084737;28;45311;-71
2023/03/01 11:50:50;;;;;;;10.85;4.20;;;16.00;34.50;;;;;;5064346;28;45360;-68
2023/03/01 11:53:34;;;;;;;6.80;4.10;;;16.00;34.70;;;;;;5067008;28;45562;-68
2023/03/01 11:56:07;;;;;;;6.85;4.88;;;15.90;34.70;;;;;;5081207;28;46389;-68
2023/03/01 11:58:48;;;;;;;5.75;3.88;;;15.90;34.90;;;;;;5082828;28;45434;-67
2023/03/01 12:01:22;;;;;;;6.60;4.15;;;15.90;34.90;;;;;;5070862;27;45422;-67
2023/03/01 12:04:00;;;;;;;5.78;4.10;;;15.90;34.90;;;;;;5067089;28;45286;-67
2023/03/01 12:06:40;;;;;;;5.13;3.92;;;16.00;35.00;;;;;;5065559;28;45456;-68
2023/03/01 12:09:15;;;;;;;10.32;3.92;;;16.10;34.90;;;;;;5066503;28;45331;-68
2023/03/01 12:11:50;;;;;;;7.03;4.15;;;16.10;34.80;;;;;;5066727;28;45371;-68
2023/03/01 12:14:31;;;;;;;7.15;4.22;;;16.20;34.80;;;;;;5066685;28;45208;-67
2023/03/01 12:17:08;;;;;;;7.45;4.50;;;16.30;34.70;;;;;;5066460;28;46346;-68
2023/03/01 12:19:44;;;;;;;5.82;4.25;;;16.40;34.70;;;;;;5066385;28;45535;-69
2023/03/01 12:22:18;;;;;;;6.85;3.83;;;16.40;34.50;;;;;;5072850;28;45295;-68
2023/03/01 12:25:15;;;;;;;8.45;3.88;;;16.40;34.50;;;;;;5086804;28;45468;-68
2023/03/01 12:28:07;;;;;;;5.80;3.95;;;16.40;34.60;;;;;;5086665;28;47618;-68
2023/03/01 12:30:40;;;;;;;4.43;3.80;;;16.40;34.70;;;;;;5043644;28;45458;-68
2023/03/01 12:33:15;;;;;;;5.53;4.15;;;16.40;34.80;;;;;;5086420;28;45351;-68
2023/03/01 12:36:03;;;;;;;8.70;4.18;;;16.30;34.90;;;;;;5086749;28;45271;-68
2023/03/01 12:38:37;;;;;;;4.88;3.95;;;16.20;35.00;;;;;;5086369;28;45393;-68
2023/03/01 12:41:28;;;;;;;5.50;3.88;;;16.10;35.10;;;;;;5086372;28;45325;-69
2023/03/01 12:44:02;;;;;;;5.60;3.58;;;16.10;35.20;;;;;;5086041;28;45257;-68
2023/03/01 12:46:39;;;;;;;4.88;3.42;;;16.10;35.90;;;;;;5086906;28;45262;-68
2023/03/01 12:49:09;;;;;;;5.43;3.85;;;16.10;35.30;;;;;;5086214;28;45251;-68
2023/03/01 12:51:38;;;;;;;4.72;4.22;;;16.00;35.40;;;;;;5086161;28;45363;-68
2023/03/01 12:54:08;;;;;;;4.18;3.58;;;16.00;35.40;;;;;;5086021;28;45303;-68
2023/03/01 12:56:37;;;;;;;6.20;3.92;;;16.10;35.40;;;;;;5086344;28;45379;-68